CYXT Airport Information

Runway Information
Runway 03 Length 5373 ft width 150 ft
Elevation 674 ft Threshold 0 ft Heading 51
Runway 21 Length 5373 ft Width 150 ft
Elevation 713 ft Threshold 0 ft Heading 231
Runway 15 Length 7497 ft width 150 ft
Elevation 693 ft Threshold 0 ft Heading 172
Runway 33 Length 7497 ft Width 150 ft
Elevation 677 ft Threshold 0 ft Heading 352
Airport Frequencies
Type A/G Name MANDATORY Frequency 122 MHZ
Type CNTR Name VANCOUVER Frequency 128.4 MHZ
Type RCO Name PACIFIC RD Frequency 126.7 MHZ
Type RDO Name RDO Frequency 122 MHZ
Airport Navaids
Type NDB Name Skeena Frequency 254 KHZ
Type NDB Name Terrace Frequency 332 KHZ
Type NDB Name Kitimat Frequency 203 KHZ
Airport Weather Information & NOTAM
ADDS - METARS form results

(1618 UTC 18 October 2018)
Data provider http://aviationweather.gov/metar/data/
 
METAR text: CYXT 181613Z CCA 21003KT 3/4SM BR BCFG OVC002 08/07 A3022 RMK FG4SF4 SLP242
Conditions at: CYXT (TERRACE AIRPORT , BC, CA) observed 1613 UTC 18 October 2018
Temperature: 8.0°C (46°F)
Dewpoint: 7.0°C (45°F) [RH = 93%]
Pressure (altimeter): 30.22 inches Hg (1023.5 mb)
[Sea-level pressure: 1024.2 mb]
Winds: from the SSW (210 degrees) at 3 MPH (3 knots; 1.5 m/s)
Visibility: 0.75 miles (1.21 km)
Ceiling: 200 feet AGL
Clouds: overcast cloud deck at 200 feet AGL
Weather: BCFG BR  (patches of fog, mist)

METAR text: CYXT 181609Z 22002KT 1SM BR BCFG BKN002 OVC008 07/07 A3022 RMK FG2SF4SC2 SLP241
Conditions at: CYXT (TERRACE AIRPORT , BC, CA) observed 1609 UTC 18 October 2018
Temperature: 7.0°C (45°F)
Dewpoint: 7.0°C (45°F) [RH = 100%]
Pressure (altimeter): 30.22 inches Hg (1023.5 mb)
[Sea-level pressure: 1024.1 mb]
Winds: from the SW (220 degrees) at 2 MPH (2 knots; 1.0 m/s)
Visibility: 1.00 miles (1.61 km)
Ceiling: 200 feet AGL
Clouds: broken clouds at 200 feet AGL
overcast cloud deck at 800 feet AGL
Weather: BR BCFG  (mist, patches of fog)

METAR text: CYXT 181600Z VRB02KT 1 1/2SM BR BCFG BKN009 OVC020 08/08 A3021 RMK FG2SF3SF3 SLP240
Conditions at: CYXT (TERRACE AIRPORT , BC, CA) observed 1600 UTC 18 October 2018
Temperature: 8.0°C (46°F)
Dewpoint: 8.0°C (46°F) [RH = 100%]
Pressure (altimeter): 30.21 inches Hg (1023.1 mb)
[Sea-level pressure: 1024.0 mb]
Winds: variable direction winds at 2 MPH (2 knots; 1.0 m/s)
Visibility: 1.50 miles (2.41 km)
Ceiling: 900 feet AGL
Clouds: broken clouds at 900 feet AGL
overcast cloud deck at 2000 feet AGL
Weather: BR BCFG  (mist, patches of fog)

METAR text: CYXT 181552Z 00000KT 1 1/2SM BR SCT002 BKN008 BKN020 OVC060 08/08 A3021 RMK FG1SF2SF2SC2SC1 VIS E 1/2 SLP238
Conditions at: CYXT (TERRACE AIRPORT , BC, CA) observed 1552 UTC 18 October 2018
Temperature: 8.0°C (46°F)
Dewpoint: 8.0°C (46°F) [RH = 100%]
Pressure (altimeter): 30.21 inches Hg (1023.1 mb)
[Sea-level pressure: 1023.8 mb]
Winds: calm
Visibility: 1.50 miles (2.41 km)
Ceiling: 800 feet AGL
Clouds: scattered clouds at 200 feet AGL
broken clouds at 800 feet AGL
broken clouds at 2000 feet AGL
overcast cloud deck at 6000 feet AGL
Weather: BR  (mist)

METAR text: CYXT 181542Z 03004KT 3/4SM BR SCT003 BKN007 OVC050 07/07 A3021 RMK FG3SF1SF3SC1 SLP237
Conditions at: CYXT (TERRACE AIRPORT , BC, CA) observed 1542 UTC 18 October 2018
Temperature: 7.0°C (45°F)
Dewpoint: 7.0°C (45°F) [RH = 100%]
Pressure (altimeter): 30.21 inches Hg (1023.1 mb)
[Sea-level pressure: 1023.7 mb]
Winds: from the NNE (30 degrees) at 5 MPH (4 knots; 2.1 m/s)
Visibility: 0.75 miles (1.21 km)
Ceiling: 700 feet AGL
Clouds: scattered clouds at 300 feet AGL
broken clouds at 700 feet AGL
overcast cloud deck at 5000 feet AGL
Weather: BR  (mist)

Forecast for: CYXT (TERRACE AIRPORT , BC, CA)
Text: TAF CYXT 181238Z 1813/1901 VRB03KT 1/2SM FG VV002
Forecast period: 1300 to 1700 UTC 18 October 2018
Forecast type: FROM: standard forecast or significant change
Winds: variable direction winds at 3 MPH (3 knots; 1.5 m/s)
Visibility: 0.50 miles (0.80 km)
Ceiling: indefinite ceiling with vertical visibility of 200 feet AGL
Clouds: obscured sky
Weather: FG  (fog)
Text: TEMPO 1813/1817 2SM BR SCT001 OVC005
Forecast period: 1300 to 1700 UTC 18 October 2018
Forecast type: TEMPORARY: The following changes expected for less than half the time period
Visibility: 2.00 miles (3.22 km)
Ceiling: 500 feet AGL
Clouds: scattered clouds at 100 feet AGL
overcast cloud deck at 500 feet AGL
Weather: BR  (mist)
Text: FM181700 VRB03KT 3/4SM BR BKN005 OVC012
Forecast period: 1700 to 2000 UTC 18 October 2018
Forecast type: FROM: standard forecast or significant change
Winds: variable direction winds at 3 MPH (3 knots; 1.5 m/s)
Visibility: 0.75 miles (1.21 km)
Ceiling: 500 feet AGL
Clouds: broken clouds at 500 feet AGL
overcast cloud deck at 1200 feet AGL
Weather: BR  (mist)
Text: TEMPO 1817/1820 6SM BR SCT005 BKN025
Forecast period: 1700 to 2000 UTC 18 October 2018
Forecast type: TEMPORARY: The following changes expected for less than half the time period
Visibility: 6 miles (10 km)
Ceiling: 2500 feet AGL
Clouds: scattered clouds at 500 feet AGL
broken clouds at 2500 feet AGL
Weather: BR  (mist)
Text: FM182000 35005KT P6SM SCT010 BKN025
Forecast period: 2000 UTC 18 October 2018 to 0100 UTC 19 October 2018
Forecast type: FROM: standard forecast or significant change
Winds: from the N (350 degrees) at 6 MPH (5 knots; 2.6 m/s)
Visibility: 6 or more miles 10+ km)
Ceiling: 2500 feet AGL
Clouds: scattered clouds at 1000 feet AGL
broken clouds at 2500 feet AGL
Weather: no significant weather forecast for this period
Text: TEMPO 1820/1901 BKN010 RMK NXT FCST BY 181900Z
Forecast period: 2000 UTC 18 October 2018 to 0100 UTC 19 October 2018
Forecast type: TEMPORARY: The following changes expected for less than half the time period
Visibility: missing
Ceiling: 1000 feet AGL
Clouds: broken clouds at 1000 feet AGL
Weather: no significant weather forecast for this period